Time;durP1;ratioP1;P1;durP2;ratioP2;P2;SDS_P1;SDS_P2;PMS_P1;PMS_P2;Temp;Humidity;BMP_temperature;BMP_pressure;BME280_temperature;BME280_humidity;BME280_pressure;Samples;Min_cycle;Max_cycle;Signal;HPM_P1;HPM_P2
2022/05/25 00:01:04;;;;;;;1.00;0.90;;;10.40;99.90;;;;;;5095405;28;20183;-41
2022/05/25 00:03:32;;;;;;;2.70;1.00;;;10.30;99.90;;;;;;5096655;28;20632;-44
2022/05/25 00:05:59;;;;;;;1.90;1.00;;;10.30;99.90;;;;;;5094935;28;20197;-47
2022/05/25 00:08:25;;;;;;;1.63;0.80;;;10.30;99.90;;;;;;5095414;28;20206;-45
2022/05/25 00:10:51;;;;;;;4.10;1.00;;;10.20;99.90;;;;;;5095129;28;20175;-46
2022/05/25 00:13:17;;;;;;;0.90;0.90;;;10.20;99.90;;;;;;5095011;28;20188;-45
2022/05/25 00:15:42;;;;;;;3.00;1.00;;;10.10;99.90;;;;;;5094445;28;20195;-46
2022/05/25 00:18:08;;;;;;;2.50;0.93;;;10.10;99.90;;;;;;5094492;28;20554;-45
2022/05/25 00:20:35;;;;;;;1.40;1.00;;;10.00;99.90;;;;;;5106903;22;20225;-43
2022/05/25 00:23:02;;;;;;;2.07;1.10;;;10.00;99.90;;;;;;5094818;28;20205;-44
2022/05/25 00:25:33;;;;;;;1.47;1.20;;;10.00;99.90;;;;;;5094969;28;20204;-43
2022/05/25 00:28:03;;;;;;;2.60;1.30;;;9.90;99.90;;;;;;5094836;28;20805;-43
2022/05/25 00:30:29;;;;;;;2.00;1.17;;;9.90;99.90;;;;;;5097464;28;20162;-41
2022/05/25 00:32:56;;;;;;;2.87;1.23;;;9.80;99.90;;;;;;5098058;28;20188;-42
2022/05/25 00:35:25;;;;;;;1.60;1.00;;;9.80;99.90;;;;;;5100945;28;20189;-42
2022/05/25 00:37:51;;;;;;;2.20;1.20;;;9.80;99.90;;;;;;5097987;28;20192;-44
2022/05/25 00:40:21;;;;;;;2.00;1.23;;;9.70;99.90;;;;;;5094272;28;20285;-41
2022/05/25 00:42:46;;;;;;;1.37;1.00;;;9.70;99.90;;;;;;5093996;28;20206;-44
2022/05/25 00:45:13;;;;;;;3.00;1.03;;;9.60;99.90;;;;;;5094340;28;20169;-43
2022/05/25 00:47:42;;;;;;;2.33;1.17;;;9.60;99.90;;;;;;5094283;28;20192;-43
2022/05/25 00:50:11;;;;;;;4.23;1.30;;;9.60;99.90;;;;;;5093443;28;20339;-44
2022/05/25 00:52:38;;;;;;;1.30;1.20;;;9.50;99.90;;;;;;5094033;28;20182;-43
2022/05/25 00:55:07;;;;;;;1.20;1.10;;;9.50;99.90;;;;;;5094242;28;20173;-42
2022/05/25 00:57:42;;;;;;;1.23;1.00;;;9.50;99.90;;;;;;5093861;28;20699;-41
2022/05/25 01:00:09;;;;;;;1.60;1.03;;;9.50;99.90;;;;;;5076561;28;20191;-42
2022/05/25 01:02:38;;;;;;;1.23;1.07;;;9.50;99.90;;;;;;5076275;28;20205;-43
2022/05/25 01:05:04;;;;;;;1.83;0.80;;;9.40;99.90;;;;;;5093825;28;20174;-45
2022/05/25 01:07:41;;;;;;;4.00;0.90;;;9.40;99.90;;;;;;5093975;28;20205;-42
2022/05/25 01:10:41;;;;;;;2.43;1.10;;;9.30;99.90;;;;;;5093744;28;20181;-42
2022/05/25 01:13:23;;;;;;;1.37;1.13;;;9.30;99.90;;;;;;5093910;28;20180;-41
2022/05/25 01:15:58;;;;;;;4.33;1.30;;;9.30;99.90;;;;;;5094010;28;20179;-42
2022/05/25 01:18:43;;;;;;;5.13;1.10;;;9.20;99.90;;;;;;5093893;28;20236;-42
2022/05/25 01:21:22;;;;;;;5.33;1.20;;;9.20;99.90;;;;;;5093494;28;20190;-42
2022/05/25 01:24:11;;;;;;;2.10;1.20;;;9.20;99.90;;;;;;5075250;28;20201;-43
2022/05/25 01:26:51;;;;;;;3.30;1.27;;;9.20;99.90;;;;;;5093790;28;20262;-43
2022/05/25 01:29:32;;;;;;;1.23;1.10;;;9.10;99.90;;;;;;5093356;28;20260;-44
2022/05/25 01:32:42;;;;;;;5.17;1.10;;;9.10;99.90;;;;;;5093678;28;20174;-42
2022/05/25 01:35:25;;;;;;;1.27;1.10;;;9.00;99.90;;;;;;5073071;28;20192;-41
2022/05/25 01:38:04;;;;;;;3.50;1.20;;;9.00;99.90;;;;;;5093616;28;20556;-43
2022/05/25 01:40:41;;;;;;;2.00;1.10;;;9.00;99.90;;;;;;5093796;28;20247;-42
2022/05/25 01:43:19;;;;;;;1.63;1.20;;;8.90;99.90;;;;;;5093476;28;20661;-42
2022/05/25 01:45:57;;;;;;;1.87;1.23;;;8.90;99.90;;;;;;5094104;28;20170;-44
2022/05/25 01:48:25;;;;;;;1.00;1.00;;;8.90;99.90;;;;;;5077352;28;20662;-43
2022/05/25 01:50:56;;;;;;;2.80;1.30;;;8.90;99.90;;;;;;5094657;28;20176;-42
2022/05/25 01:53:27;;;;;;;3.00;1.43;;;8.90;99.90;;;;;;5095509;28;20174;-46
2022/05/25 01:56:01;;;;;;;4.37;1.10;;;8.80;99.90;;;;;;5096614;28;20648;-44
2022/05/25 01:58:27;;;;;;;4.13;1.40;;;8.80;99.90;;;;;;5096056;28;20229;-44
2022/05/25 02:00:59;;;;;;;1.40;1.10;;;8.80;99.90;;;;;;5094589;28;20588;-43
2022/05/25 02:06:31;;;;;;;3.67;1.30;;;8.80;99.90;;;;;;5097663;28;20169;-43
2022/05/25 02:09:18;;;;;;;2.27;1.50;;;8.70;99.90;;;;;;5097278;28;20747;-44
2022/05/25 02:11:47;;;;;;;3.23;1.67;;;8.70;99.90;;;;;;5096942;28;20171;-42
2022/05/25 02:14:41;;;;;;;4.60;1.40;;;8.80;99.90;;;;;;5078953;28;20276;-42
2022/05/25 02:17:25;;;;;;;2.23;1.07;;;8.70;99.90;;;;;;5097282;28;20170;-43
2022/05/25 02:19:53;;;;;;;3.07;1.40;;;8.70;99.90;;;;;;5097053;28;20648;-40
2022/05/25 02:22:20;;;;;;;1.20;1.10;;;8.70;99.90;;;;;;5097316;28;20471;-42
2022/05/25 02:24:57;;;;;;;1.20;1.10;;;8.60;99.90;;;;;;5097076;28;20171;-41
2022/05/25 02:27:39;;;;;;;4.13;1.17;;;8.60;99.90;;;;;;5096739;28;20230;-45
2022/05/25 02:30:24;;;;;;;3.00;1.47;;;8.60;99.90;;;;;;5096989;28;20171;-43
2022/05/25 02:33:13;;;;;;;2.80;1.23;;;8.60;99.90;;;;;;5097007;28;20167;-43
2022/05/25 02:35:42;;;;;;;3.03;1.27;;;8.60;99.90;;;;;;5095991;28;20190;-41
2022/05/25 02:38:08;;;;;;;3.37;1.20;;;8.50;99.90;;;;;;5096438;28;20210;-42
2022/05/25 02:40:36;;;;;;;1.57;1.40;;;8.50;99.90;;;;;;5096953;28;20252;-44
2022/05/25 02:43:03;;;;;;;2.50;1.33;;;8.50;99.90;;;;;;5096451;28;20199;-43
2022/05/25 02:45:29;;;;;;;1.20;1.10;;;8.50;99.90;;;;;;5096578;28;20543;-43
2022/05/25 02:47:54;;;;;;;1.70;1.33;;;8.40;99.90;;;;;;5096586;28;20191;-42
2022/05/25 02:50:21;;;;;;;5.20;1.60;;;8.40;99.90;;;;;;5096521;28;20171;-41
2022/05/25 02:52:47;;;;;;;2.17;1.43;;;8.40;99.90;;;;;;5096206;28;20175;-41
2022/05/25 02:55:13;;;;;;;5.17;1.53;;;8.30;99.90;;;;;;5096567;28;20266;-42
2022/05/25 02:57:39;;;;;;;4.80;1.60;;;8.30;99.90;;;;;;5096061;28;20198;-41
2022/05/25 03:00:07;;;;;;;2.63;1.50;;;8.20;99.90;;;;;;5096144;28;20669;-42
2022/05/25 03:02:33;;;;;;;1.20;1.10;;;8.20;99.90;;;;;;5096176;28;20741;-45
2022/05/25 03:04:59;;;;;;;5.40;2.23;;;8.20;99.90;;;;;;5096100;28;20261;-42
2022/05/25 03:07:25;;;;;;;2.53;1.60;;;8.10;99.90;;;;;;5095965;28;20226;-41
2022/05/25 03:09:51;;;;;;;2.70;1.47;;;8.10;99.90;;;;;;5096403;28;20284;-41
2022/05/25 03:12:17;;;;;;;1.70;1.60;;;8.10;99.90;;;;;;5095953;28;20221;-42
2022/05/25 03:14:42;;;;;;;1.30;1.20;;;8.10;99.90;;;;;;5095815;28;20183;-42
2022/05/25 03:17:12;;;;;;;3.33;1.40;;;8.00;99.90;;;;;;5096325;28;20171;-44
2022/05/25 03:19:38;;;;;;;4.57;1.50;;;8.00;99.90;;;;;;5095781;28;20265;-44
2022/05/25 03:22:04;;;;;;;1.83;1.40;;;8.00;99.90;;;;;;5096010;28;20217;-41
2022/05/25 03:24:30;;;;;;;1.60;1.43;;;8.00;99.90;;;;;;5095815;28;20199;-43
2022/05/25 03:26:55;;;;;;;2.93;1.77;;;8.00;99.90;;;;;;5095729;28;20178;-44
2022/05/25 03:29:21;;;;;;;3.90;1.70;;;8.00;99.90;;;;;;5095603;28;20170;-43
2022/05/25 03:31:47;;;;;;;3.00;1.60;;;8.00;99.90;;;;;;5096046;28;20176;-41
2022/05/25 03:34:12;;;;;;;1.70;1.53;;;8.00;99.90;;;;;;5095508;28;20284;-43
2022/05/25 03:36:38;;;;;;;6.07;1.90;;;8.00;99.90;;;;;;5095323;28;20541;-42
2022/05/25 03:39:04;;;;;;;2.87;1.90;;;8.00;99.90;;;;;;5095374;28;20240;-43
2022/05/25 03:41:29;;;;;;;4.07;1.60;;;8.00;99.90;;;;;;5095530;28;20167;-43
2022/05/25 03:43:55;;;;;;;2.20;1.60;;;8.10;99.90;;;;;;5095251;28;20329;-41
2022/05/25 03:46:21;;;;;;;2.90;1.83;;;8.10;99.90;;;;;;5095309;28;20186;-44
2022/05/25 03:48:46;;;;;;;4.47;1.40;;;8.00;99.90;;;;;;5095178;28;20225;-43
2022/05/25 03:51:12;;;;;;;1.90;1.70;;;8.10;99.90;;;;;;5096036;28;20183;-44
2022/05/25 03:53:38;;;;;;;6.73;1.80;;;8.00;99.90;;;;;;5095258;28;20289;-43
2022/05/25 03:56:05;;;;;;;2.40;1.63;;;8.10;99.90;;;;;;5095377;28;20639;-43
2022/05/25 03:58:31;;;;;;;1.87;1.70;;;8.10;99.90;;;;;;5095242;28;20674;-42
2022/05/25 04:00:56;;;;;;;2.43;1.70;;;8.00;99.90;;;;;;5095386;28;20658;-43
2022/05/25 04:03:23;;;;;;;4.87;1.87;;;8.10;99.90;;;;;;5095063;28;20187;-42
2022/05/25 04:05:48;;;;;;;2.80;1.80;;;8.10;99.90;;;;;;5094832;28;20182;-42
2022/05/25 04:08:14;;;;;;;5.60;2.07;;;8.10;99.90;;;;;;5094716;28;20201;-43
2022/05/25 04:10:40;;;;;;;1.93;1.70;;;8.10;99.90;;;;;;5094700;28;20167;-40
2022/05/25 04:13:06;;;;;;;8.10;2.27;;;8.10;99.90;;;;;;5094620;28;20275;-44
2022/05/25 04:15:33;;;;;;;5.07;2.07;;;8.10;99.90;;;;;;5094744;28;20225;-42
2022/05/25 04:17:58;;;;;;;2.73;1.90;;;8.10;99.90;;;;;;5094573;28;20197;-42
2022/05/25 04:20:25;;;;;;;5.70;1.87;;;8.10;99.90;;;;;;5094722;28;20273;-43
2022/05/25 04:22:51;;;;;;;5.20;2.23;;;8.10;99.90;;;;;;5094832;28;20182;-42
2022/05/25 04:25:21;;;;;;;3.73;2.20;;;8.10;99.90;;;;;;5093403;28;20727;-42
2022/05/25 04:27:48;;;;;;;5.47;1.93;;;8.20;99.90;;;;;;5094729;28;20201;-40
2022/05/25 04:30:17;;;;;;;3.47;2.00;;;8.20;99.90;;;;;;5094344;28;20646;-44
2022/05/25 04:32:42;;;;;;;4.20;2.07;;;8.20;99.90;;;;;;5094465;28;20199;-45
2022/05/25 04:35:10;;;;;;;4.47;1.90;;;8.30;99.90;;;;;;5094233;28;20527;-43
2022/05/25 04:37:55;;;;;;;4.03;2.40;;;8.30;99.90;;;;;;5096040;28;20248;-42
2022/05/25 04:40:22;;;;;;;3.70;2.40;;;8.30;99.90;;;;;;5094562;28;20159;-42
2022/05/25 04:42:49;;;;;;;6.27;2.53;;;8.40;99.90;;;;;;5094682;28;20175;-42
2022/05/25 04:45:15;;;;;;;6.10;2.83;;;8.50;99.90;;;;;;5094838;28;20182;-43
2022/05/25 04:47:42;;;;;;;5.90;2.47;;;8.50;99.90;;;;;;5094239;28;20195;-43
2022/05/25 04:50:10;;;;;;;3.00;2.03;;;8.60;99.90;;;;;;5076315;28;20182;-43
2022/05/25 04:52:37;;;;;;;3.77;2.80;;;8.60;99.90;;;;;;5096009;28;20264;-43
2022/05/25 04:55:04;;;;;;;4.37;2.43;;;8.70;99.90;;;;;;5096205;28;20179;-42
2022/05/25 04:57:30;;;;;;;6.23;2.80;;;8.70;99.90;;;;;;5096926;28;20206;-43
2022/05/25 04:59:59;;;;;;;5.60;2.70;;;8.80;99.90;;;;;;5079298;28;20178;-43
2022/05/25 05:02:26;;;;;;;5.50;2.83;;;8.80;99.90;;;;;;5094886;28;20189;-43
2022/05/25 05:04:52;;;;;;;6.10;2.70;;;8.90;99.90;;;;;;5094409;28;20163;-42
2022/05/25 05:07:17;;;;;;;4.33;2.23;;;9.00;99.90;;;;;;5093755;28;20244;-41
2022/05/25 05:09:45;;;;;;;4.57;2.63;;;9.10;99.90;;;;;;5094085;28;20174;-44
2022/05/25 05:12:12;;;;;;;6.93;3.23;;;9.20;99.90;;;;;;5094000;28;20178;-41
2022/05/25 05:14:38;;;;;;;4.80;2.80;;;9.30;99.90;;;;;;5094219;28;20666;-38
2022/05/25 05:17:07;;;;;;;5.03;2.87;;;9.40;99.90;;;;;;5094015;28;20167;-40
2022/05/25 05:19:32;;;;;;;4.73;3.20;;;9.50;99.90;;;;;;5093432;28;20269;-39
2022/05/25 05:21:59;;;;;;;7.73;3.30;;;9.60;99.90;;;;;;5075388;28;20653;-38
2022/05/25 05:24:26;;;;;;;10.03;3.40;;;9.70;99.90;;;;;;5093540;28;20179;-40
2022/05/25 05:26:52;;;;;;;8.73;3.77;;;9.70;99.90;;;;;;5093297;28;20182;-39
2022/05/25 05:29:18;;;;;;;8.37;3.07;;;9.90;99.90;;;;;;5093148;28;20209;-37
2022/05/25 05:31:43;;;;;;;5.50;3.10;;;10.00;99.90;;;;;;5093368;28;20182;-38
2022/05/25 05:34:09;;;;;;;8.70;3.17;;;10.10;99.90;;;;;;5093238;28;20190;-40
2022/05/25 05:37:05;;;;;;;7.53;3.10;;;10.20;99.90;;;;;;5092859;28;20601;-39
2022/05/25 05:39:35;;;;;;;7.93;2.60;;;10.30;99.90;;;;;;5091420;28;20589;-38
2022/05/25 05:42:07;;;;;;;6.57;2.87;;;10.40;99.90;;;;;;5093309;28;20155;-38
2022/05/25 05:44:49;;;;;;;7.03;3.07;;;10.60;99.90;;;;;;5093312;28;20164;-40
2022/05/25 05:47:19;;;;;;;9.03;2.87;;;10.70;99.90;;;;;;5093403;28;20193;-37
2022/05/25 05:49:45;;;;;;;2.47;2.03;;;10.80;99.90;;;;;;5093215;28;20167;-39
2022/05/25 05:52:11;;;;;;;3.73;2.17;;;10.90;99.90;;;;;;5075067;28;20712;-39
2022/05/25 05:54:38;;;;;;;6.90;2.87;;;11.00;99.90;;;;;;5093063;28;20623;-39
2022/05/25 05:57:04;;;;;;;3.80;2.03;;;11.10;99.90;;;;;;5075323;28;20175;-40
2022/05/25 05:59:30;;;;;;;5.23;2.20;;;11.30;99.90;;;;;;5093216;28;20167;-39
2022/05/25 06:01:56;;;;;;;4.80;1.93;;;11.40;99.90;;;;;;5093408;28;20194;-38
2022/05/25 06:04:22;;;;;;;5.93;2.50;;;11.50;99.90;;;;;;5093152;28;20211;-38
2022/05/25 06:06:47;;;;;;;4.03;1.70;;;11.60;99.90;;;;;;5093350;28;20187;-37
2022/05/25 06:09:13;;;;;;;6.37;1.80;;;11.80;99.90;;;;;;5092860;28;20625;-41
2022/05/25 06:11:41;;;;;;;1.50;1.40;;;11.90;99.90;;;;;;5093109;28;20177;-38
2022/05/25 06:14:07;;;;;;;3.80;1.50;;;12.00;99.90;;;;;;5093168;28;20573;-40
2022/05/25 06:19:26;;;;;;;3.73;1.70;;;12.30;99.90;;;;;;5092828;28;20327;-40
2022/05/25 06:22:09;;;;;;;4.10;1.53;;;12.60;99.90;;;;;;5092945;28;20168;-39
2022/05/25 06:24:38;;;;;;;3.13;1.50;;;12.80;99.90;;;;;;5093245;28;20178;-39
2022/05/25 06:27:08;;;;;;;3.80;1.50;;;13.10;99.90;;;;;;5093138;28;20265;-39
2022/05/25 06:29:35;;;;;;;2.23;1.43;;;13.40;99.90;;;;;;5093111;28;20197;-40
2022/05/25 06:32:00;;;;;;;3.73;1.40;;;13.50;99.90;;;;;;5092844;28;20279;-38
2022/05/25 06:34:26;;;;;;;3.23;1.40;;;13.70;99.90;;;;;;5093010;28;20674;-37
2022/05/25 06:36:51;;;;;;;3.27;1.43;;;13.90;99.90;;;;;;5093159;28;20241;-40
2022/05/25 06:39:17;;;;;;;3.13;1.40;;;14.10;99.90;;;;;;5092672;28;20195;-40
2022/05/25 06:41:43;;;;;;;1.47;1.00;;;14.20;99.90;;;;;;5092974;28;20257;-38
2022/05/25 06:44:08;;;;;;;1.77;1.00;;;14.40;99.90;;;;;;5092676;28;20175;-40
2022/05/25 06:46:34;;;;;;;2.17;1.20;;;14.60;99.90;;;;;;5093252;28;20186;-37
2022/05/25 06:48:59;;;;;;;5.17;1.03;;;14.70;99.90;;;;;;5093729;28;20210;-40
2022/05/25 06:51:28;;;;;;;3.03;1.30;;;14.90;99.90;;;;;;5096498;28;20181;-39
2022/05/25 06:53:54;;;;;;;3.30;0.90;;;15.10;99.90;;;;;;5096204;28;20199;-38
2022/05/25 06:56:20;;;;;;;1.97;0.90;;;15.20;99.90;;;;;;5096280;28;20209;-40
2022/05/25 06:58:47;;;;;;;4.00;0.83;;;15.30;99.90;;;;;;5096100;28;20224;-40
2022/05/25 07:01:13;;;;;;;1.20;0.70;;;15.40;99.90;;;;;;5096441;28;20179;-38
2022/05/25 07:03:38;;;;;;;1.90;0.80;;;15.50;99.90;;;;;;5096386;28;20185;-38
2022/05/25 07:06:08;;;;;;;2.27;0.80;;;15.60;99.90;;;;;;5095980;28;20179;-38
2022/05/25 07:08:34;;;;;;;4.27;0.70;;;15.60;99.90;;;;;;5096256;28;20198;-38
2022/05/25 07:11:00;;;;;;;1.13;0.50;;;15.70;99.90;;;;;;5096191;28;20185;-39
2022/05/25 07:13:27;;;;;;;1.10;0.50;;;15.80;99.90;;;;;;5095829;28;20209;-38
2022/05/25 07:16:14;;;;;;;1.97;0.60;;;15.90;99.90;;;;;;5096102;28;20168;-40
2022/05/25 07:18:41;;;;;;;0.43;0.43;;;15.90;99.90;;;;;;5095699;28;20190;-39
2022/05/25 07:21:11;;;;;;;1.23;0.70;;;16.00;99.90;;;;;;5095719;28;20347;-38
2022/05/25 07:23:39;;;;;;;3.93;0.70;;;16.00;99.90;;;;;;5095711;28;20167;-41
2022/05/25 07:26:06;;;;;;;0.50;0.40;;;16.10;99.90;;;;;;5095526;28;20279;-40
2022/05/25 07:28:33;;;;;;;0.70;0.57;;;16.20;99.90;;;;;;5096036;28;20195;-40
2022/05/25 07:31:10;;;;;;;1.93;0.50;;;16.30;99.90;;;;;;5095831;28;20232;-39
2022/05/25 07:33:38;;;;;;;1.97;0.70;;;16.50;99.90;;;;;;5095777;28;20552;-39
2022/05/25 07:36:06;;;;;;;1.43;0.70;;;16.60;99.90;;;;;;5095475;28;20179;-39
2022/05/25 07:38:32;;;;;;;0.70;0.60;;;16.70;99.90;;;;;;5095441;28;20206;-40
2022/05/25 07:40:59;;;;;;;1.00;0.63;;;16.80;99.90;;;;;;5095725;28;20171;-37
2022/05/25 07:43:27;;;;;;;1.10;0.63;;;16.90;99.90;;;;;;5095372;28;20540;-38
2022/05/25 07:45:53;;;;;;;0.80;0.40;;;17.10;99.90;;;;;;5095242;28;20225;-39
2022/05/25 07:48:19;;;;;;;0.60;0.43;;;17.20;99.90;;;;;;5095171;28;20661;-40
2022/05/25 07:50:44;;;;;;;1.93;0.77;;;17.20;99.90;;;;;;5095384;28;20202;-39
2022/05/25 07:55:59;;;;;;;0.93;0.60;;;17.50;99.90;;;;;;5095623;28;20170;-40
2022/05/25 07:58:25;;;;;;;1.00;0.60;;;17.60;99.90;;;;;;5095178;28;20274;-40
2022/05/25 08:00:53;;;;;;;2.07;0.70;;;17.70;99.90;;;;;;5076551;28;20210;-42
2022/05/25 08:06:04;;;;;;;1.97;0.53;;;17.80;99.90;;;;;;5094962;28;20636;-41
2022/05/25 08:08:30;;;;;;;2.13;0.57;;;17.90;99.90;;;;;;5094931;28;20227;-39
2022/05/25 08:11:02;;;;;;;1.27;0.50;;;18.00;99.90;;;;;;5094703;28;20190;-41
2022/05/25 08:13:30;;;;;;;0.63;0.40;;;18.00;99.90;;;;;;5094897;28;20199;-41
2022/05/25 08:15:56;;;;;;;0.40;0.40;;;18.00;99.90;;;;;;5095250;28;20167;-41
2022/05/25 08:18:22;;;;;;;1.37;0.50;;;18.10;99.90;;;;;;5094568;28;20197;-42
2022/05/25 08:20:48;;;;;;;0.57;0.43;;;18.00;99.90;;;;;;5094630;28;20195;-42
2022/05/25 08:23:15;;;;;;;0.97;0.50;;;18.00;99.90;;;;;;5095903;28;20649;-45
2022/05/25 08:25:42;;;;;;;0.77;0.50;;;18.10;99.90;;;;;;5095239;28;20187;-42
2022/05/25 08:28:08;;;;;;;1.23;0.40;;;18.10;99.90;;;;;;5094974;28;20198;-44
2022/05/25 08:30:37;;;;;;;0.67;0.50;;;18.10;99.90;;;;;;5095116;28;20178;-44
2022/05/25 08:33:03;;;;;;;2.20;0.77;;;18.20;99.90;;;;;;5094607;28;20289;-44
2022/05/25 08:35:30;;;;;;;2.13;0.60;;;18.30;99.90;;;;;;5094702;28;20521;-43
2022/05/25 08:37:57;;;;;;;1.80;0.60;;;18.30;99.90;;;;;;5094230;28;20191;-45
2022/05/25 08:40:25;;;;;;;0.57;0.50;;;18.30;99.90;;;;;;5094506;28;20167;-44
2022/05/25 08:43:08;;;;;;;1.77;0.60;;;18.30;99.90;;;;;;5094230;28;20250;-45
2022/05/25 08:45:44;;;;;;;0.73;0.43;;;18.40;99.90;;;;;;5094215;28;20166;-45
2022/05/25 08:48:12;;;;;;;0.73;0.47;;;18.40;99.90;;;;;;5094148;28;20194;-44
2022/05/25 08:50:39;;;;;;;2.37;0.77;;;18.60;99.90;;;;;;5094085;28;20319;-44
2022/05/25 08:53:07;;;;;;;2.80;0.50;;;18.70;99.90;;;;;;5075858;28;20230;-43
2022/05/25 08:56:19;;;;;;;1.07;0.60;;;18.70;99.90;;;;;;5094094;28;20175;-44
2022/05/25 08:59:03;;;;;;;1.50;0.63;;;19.00;99.90;;;;;;5075957;28;20207;-45
2022/05/25 09:01:41;;;;;;;1.40;0.50;;;19.10;99.90;;;;;;5094117;28;20224;-43
2022/05/25 09:04:33;;;;;;;2.17;0.70;;;19.10;99.90;;;;;;5094325;28;20532;-45
2022/05/25 09:07:32;;;;;;;1.80;0.93;;;19.10;99.90;;;;;;5093872;28;20178;-42
2022/05/25 09:09:58;;;;;;;0.63;0.60;;;19.10;99.90;;;;;;5088624;28;20191;-44
2022/05/25 09:12:29;;;;;;;1.33;0.53;;;19.00;99.90;;;;;;5093200;28;20206;-42
2022/05/25 09:15:04;;;;;;;2.43;0.57;;;19.00;99.90;;;;;;5094250;28;20607;-44
2022/05/25 09:17:51;;;;;;;1.03;0.57;;;19.10;99.90;;;;;;5093921;28;20198;-44
2022/05/25 09:20:23;;;;;;;1.47;0.70;;;19.30;99.90;;;;;;5075385;28;20599;-44
2022/05/25 09:22:49;;;;;;;3.13;1.00;;;19.40;99.90;;;;;;5094230;28;20216;-42
2022/05/25 09:25:15;;;;;;;2.93;0.70;;;19.40;99.90;;;;;;5093589;28;20212;-42
2022/05/25 09:27:45;;;;;;;1.50;0.77;;;19.40;99.90;;;;;;5093444;28;20203;-46
2022/05/25 09:30:12;;;;;;;0.77;0.53;;;19.40;99.90;;;;;;5093486;28;20182;-45
2022/05/25 09:32:59;;;;;;;2.70;0.63;;;19.40;99.90;;;;;;5093742;28;20263;-45
2022/05/25 09:35:30;;;;;;;2.03;0.67;;;19.30;99.90;;;;;;5094324;28;20191;-45
2022/05/25 09:38:01;;;;;;;1.57;0.70;;;19.30;99.90;;;;;;5093696;28;20226;-45
2022/05/25 09:40:44;;;;;;;0.43;0.43;;;19.40;99.90;;;;;;5093764;28;20166;-42
2022/05/25 09:43:12;;;;;;;0.60;0.50;;;19.50;99.90;;;;;;5093608;28;20642;-43
2022/05/25 09:45:50;;;;;;;0.70;0.50;;;19.60;99.90;;;;;;5093606;28;20190;-42
2022/05/25 09:48:22;;;;;;;1.53;0.47;;;19.70;99.90;;;;;;5093260;28;20279;-44
2022/05/25 09:50:52;;;;;;;1.33;0.53;;;19.70;99.90;;;;;;5093539;28;20236;-45
2022/05/25 09:53:22;;;;;;;2.10;0.50;;;19.70;99.90;;;;;;5093238;28;20210;-46
2022/05/25 09:55:59;;;;;;;1.13;0.80;;;19.80;99.90;;;;;;5093261;28;20182;-45
2022/05/25 09:58:40;;;;;;;2.43;0.77;;;19.90;99.90;;;;;;5093471;28;20198;-45
2022/05/25 10:01:26;;;;;;;0.97;0.53;;;20.00;99.90;;;;;;5075770;28;20229;-44
2022/05/25 10:03:53;;;;;;;1.87;0.60;;;20.10;99.90;;;;;;5093332;28;20206;-44
2022/05/25 10:06:21;;;;;;;0.60;0.57;;;20.10;99.90;;;;;;5093453;28;20187;-43
2022/05/25 10:09:10;;;;;;;1.87;0.50;;;20.00;99.90;;;;;;5093409;28;20203;-43
2022/05/25 10:11:48;;;;;;;2.20;0.50;;;20.10;99.90;;;;;;5093032;28;20171;-42
2022/05/25 10:14:30;;;;;;;2.17;0.37;;;20.00;99.90;;;;;;5093267;28;20221;-45
2022/05/25 10:17:35;;;;;;;2.83;0.50;;;20.00;99.90;;;;;;5093397;28;20171;-45
2022/05/25 10:20:03;;;;;;;2.17;0.40;;;20.20;99.90;;;;;;5092778;28;20197;-43
2022/05/25 10:22:44;;;;;;;1.47;0.60;;;20.30;99.90;;;;;;5093345;28;20232;-45
2022/05/25 10:25:24;;;;;;;2.97;0.63;;;20.40;99.90;;;;;;5097083;28;20211;-45
2022/05/25 10:27:50;;;;;;;1.13;0.57;;;20.40;99.90;;;;;;5097276;28;20281;-44
2022/05/25 10:38:47;;;;;;;1.70;0.50;;;20.70;99.90;;;;;;5097057;28;20608;-44
2022/05/25 10:44:06;;;;;;;0.83;0.53;;;20.40;99.90;;;;;;5096830;28;20205;-45
2022/05/25 10:46:32;;;;;;;0.53;0.40;;;20.40;99.90;;;;;;5097119;28;20576;-45
2022/05/25 10:49:07;;;;;;;1.63;0.30;;;20.50;99.90;;;;;;5096676;28;20256;-44
2022/05/25 10:51:46;;;;;;;2.00;0.50;;;20.70;99.90;;;;;;5096871;28;20193;-43
2022/05/25 10:57:28;;;;;;;0.80;0.43;;;20.90;99.90;;;;;;5096393;28;20162;-44
2022/05/25 11:00:45;;;;;;;0.87;0.50;;;21.00;99.90;;;;;;5096356;28;20163;-45
2022/05/25 11:03:32;;;;;;;1.13;0.70;;;21.00;99.90;;;;;;5079686;28;20568;-43
2022/05/25 11:06:04;;;;;;;2.20;0.47;;;21.10;99.90;;;;;;5096836;28;20273;-45
2022/05/25 11:08:39;;;;;;;1.73;0.40;;;21.20;99.90;;;;;;5096252;28;20671;-44
2022/05/25 11:11:08;;;;;;;1.27;0.73;;;21.20;99.90;;;;;;5096367;28;20229;-46
2022/05/25 11:13:51;;;;;;;2.90;0.60;;;21.20;99.90;;;;;;5096701;28;20210;-45
2022/05/25 11:16:55;;;;;;;4.17;1.23;;;21.30;99.90;;;;;;5096589;28;20152;-44
2022/05/25 11:19:49;;;;;;;0.63;0.37;;;21.30;99.90;;;;;;5096024;28;20685;-44
2022/05/25 11:22:33;;;;;;;1.23;0.43;;;21.20;99.90;;;;;;5096208;28;20174;-45
2022/05/25 11:25:11;;;;;;;1.63;0.47;;;21.00;99.90;;;;;;5097532;28;20247;-45
2022/05/25 11:28:27;;;;;;;2.37;0.40;;;21.00;99.90;;;;;;5096317;28;20187;-45
2022/05/25 11:31:22;;;;;;;0.30;0.30;;;21.20;99.90;;;;;;5061684;28;20183;-47
2022/05/25 11:33:54;;;;;;;1.20;0.33;;;21.20;99.90;;;;;;5095858;28;20202;-44
2022/05/25 11:36:43;;;;;;;1.70;0.57;;;21.20;99.90;;;;;;5095366;28;20167;-44
2022/05/25 11:39:31;;;;;;;1.57;0.50;;;21.30;99.90;;;;;;5095546;28;20328;-46
2022/05/25 11:42:21;;;;;;;2.77;0.60;;;21.40;99.90;;;;;;5095745;28;20155;-43
2022/05/25 11:45:23;;;;;;;0.30;0.30;;;21.50;99.90;;;;;;5095795;28;20155;-44
2022/05/25 11:48:11;;;;;;;0.57;0.40;;;21.50;99.90;;;;;;5095738;28;20198;-44
2022/05/25 11:50:47;;;;;;;0.67;0.40;;;21.40;99.90;;;;;;5095433;28;20626;-45
2022/05/25 11:53:41;;;;;;;4.27;0.63;;;21.50;99.90;;;;;;5095555;28;20641;-40
2022/05/25 11:56:21;;;;;;;0.20;0.20;;;21.50;99.90;;;;;;5095485;28;20163;-41
2022/05/25 11:59:08;;;;;;;0.50;0.50;;;21.60;99.90;;;;;;5095211;28;20788;-38
2022/05/25 12:01:47;;;;;;;0.30;0.30;;;21.80;99.90;;;;;;5095919;28;20167;-40
2022/05/25 12:04:19;;;;;;;3.30;0.50;;;21.90;99.90;;;;;;5095317;28;20189;-39
2022/05/25 12:07:05;;;;;;;2.40;0.67;;;21.70;99.90;;;;;;5095042;28;20557;-41
2022/05/25 12:09:40;;;;;;;6.03;0.60;;;21.60;99.90;;;;;;5095292;28;20167;-40
2022/05/25 12:12:27;;;;;;;1.37;0.50;;;21.60;99.90;;;;;;5095022;28;20182;-41
2022/05/25 12:15:16;;;;;;;0.83;0.37;;;21.70;99.90;;;;;;5094838;28;20693;-40
2022/05/25 12:17:58;;;;;;;0.60;0.47;;;21.80;99.90;;;;;;5076773;28;20190;-40
2022/05/25 12:20:47;;;;;;;1.33;0.33;;;21.80;99.90;;;;;;5094744;28;20195;-40
2022/05/25 12:23:17;;;;;;;2.13;0.80;;;21.80;99.90;;;;;;5095000;28;20615;-41
2022/05/25 12:25:53;;;;;;;1.67;0.50;;;21.80;99.90;;;;;;5094559;28;20634;-40
2022/05/25 12:28:21;;;;;;;1.23;0.40;;;21.80;99.90;;;;;;5095432;28;20194;-40
2022/05/25 12:30:47;;;;;;;0.93;0.40;;;21.80;99.90;;;;;;5094650;28;20627;-41
2022/05/25 12:33:21;;;;;;;1.33;0.40;;;21.70;99.90;;;;;;5094725;28;20289;-40
2022/05/25 12:35:49;;;;;;;3.10;0.53;;;21.60;99.90;;;;;;5094447;28;20182;-40
2022/05/25 12:38:16;;;;;;;1.23;0.40;;;21.70;99.90;;;;;;5094841;28;20194;-42
2022/05/25 12:40:49;;;;;;;0.93;0.47;;;21.80;99.90;;;;;;5094860;28;20175;-41
2022/05/25 12:43:36;;;;;;;4.27;0.50;;;21.90;99.90;;;;;;5094589;28;20533;-41
2022/05/25 12:49:08;;;;;;;0.47;0.40;;;21.80;99.90;;;;;;5094563;28;20209;-42
2022/05/25 12:51:38;;;;;;;1.50;0.40;;;21.70;99.90;;;;;;5096137;28;20300;-41
2022/05/25 12:54:18;;;;;;;0.40;0.40;;;21.50;99.90;;;;;;5095182;28;20255;-41
2022/05/25 12:56:45;;;;;;;1.07;0.47;;;21.50;99.90;;;;;;5094179;28;20647;-38
2022/05/25 12:59:13;;;;;;;2.30;0.60;;;21.70;99.90;;;;;;5094469;28;20322;-38
2022/05/25 13:01:42;;;;;;;0.70;0.40;;;21.90;99.90;;;;;;5094730;28;20318;-40
2022/05/25 13:04:17;;;;;;;1.07;0.60;;;21.90;99.90;;;;;;5094364;28;20274;-38
2022/05/25 13:06:43;;;;;;;0.50;0.40;;;22.00;99.90;;;;;;5094008;28;20177;-41
2022/05/25 13:09:11;;;;;;;0.80;0.50;;;22.00;99.90;;;;;;5094162;28;20207;-39
2022/05/25 13:11:44;;;;;;;6.23;0.90;;;22.20;99.90;;;;;;5094188;28;20174;-40
2022/05/25 13:14:16;;;;;;;0.93;0.30;;;22.20;99.90;;;;;;5094277;28;20263;-41
2022/05/25 13:16:42;;;;;;;1.93;0.40;;;22.40;99.90;;;;;;5094149;28;20250;-40
2022/05/25 13:19:17;;;;;;;4.83;0.73;;;22.70;99.90;;;;;;5093925;28;20221;-39
2022/05/25 13:22:06;;;;;;;2.50;0.40;;;22.80;99.90;;;;;;5093830;28;20778;-37
2022/05/25 13:24:56;;;;;;;1.47;0.40;;;22.90;99.90;;;;;;5094037;28;20178;-40
2022/05/25 13:28:17;;;;;;;1.60;0.40;;;23.00;99.90;;;;;;5093996;28;20190;-38
2022/05/25 13:30:53;;;;;;;2.17;0.40;;;22.70;99.90;;;;;;5012138;28;20572;-40
2022/05/25 13:33:19;;;;;;;2.63;0.70;;;22.40;99.90;;;;;;5083858;28;20301;-38
2022/05/25 13:35:46;;;;;;;1.13;0.53;;;22.40;99.90;;;;;;5094182;28;20202;-42
2022/05/25 13:38:29;;;;;;;0.60;0.40;;;22.50;99.90;;;;;;5094173;28;20725;-39
2022/05/25 13:40:58;;;;;;;0.50;0.50;;;22.60;99.90;;;;;;5094067;28;20580;-39
2022/05/25 13:43:37;;;;;;;0.37;0.30;;;22.50;99.90;;;;;;5094039;28;20175;-39
2022/05/25 13:46:09;;;;;;;0.30;0.30;;;22.60;99.90;;;;;;5093918;28;20171;-40